createdAt,value
2022-09-01T00:00:02.119Z,1.20
2022-09-01T00:02:30.531Z,0.90
2022-09-01T00:04:58.959Z,1.20
2022-09-01T00:07:32.806Z,1.00
2022-09-01T00:10:00.642Z,1.00
2022-09-01T00:12:29.039Z,1.00
2022-09-01T00:14:56.020Z,1.20
2022-09-01T00:17:22.949Z,1.17
2022-09-01T00:19:49.725Z,1.00
2022-09-01T00:22:16.684Z,1.10
2022-09-01T00:24:43.470Z,1.23
2022-09-01T00:27:10.282Z,1.20
2022-09-01T00:29:37.111Z,1.30
2022-09-01T00:32:04.877Z,1.27
2022-09-01T00:34:32.038Z,1.27
2022-09-01T00:36:59.122Z,1.23
2022-09-01T00:39:26.169Z,1.60
2022-09-01T00:41:52.931Z,1.13
2022-09-01T00:44:29.717Z,1.20
2022-09-01T00:46:59.367Z,1.43
2022-09-01T00:49:35.358Z,1.50
2022-09-01T00:52:31.473Z,1.27
2022-09-01T00:55:02.526Z,1.10
2022-09-01T00:57:29.568Z,1.20
2022-09-01T01:00:01.871Z,1.57
2022-09-01T01:02:29.319Z,1.30
2022-09-01T01:04:59.579Z,1.60
2022-09-01T01:07:28.456Z,1.03
2022-09-01T01:09:56.060Z,1.10
2022-09-01T01:12:23.825Z,1.40
2022-09-01T01:14:51.060Z,1.40
2022-09-01T01:17:19.903Z,1.40
2022-09-01T01:20:10.257Z,1.27
2022-09-01T01:23:10.156Z,1.40
2022-09-01T01:25:48.611Z,1.40
2022-09-01T01:28:31.047Z,1.23
2022-09-01T01:31:06.280Z,1.30
2022-09-01T01:33:42.861Z,1.40
2022-09-01T01:36:42.165Z,1.20
2022-09-01T01:39:13.125Z,1.33
2022-09-01T01:41:45.186Z,1.50
2022-09-01T01:44:13.462Z,1.60
2022-09-01T01:46:48.097Z,1.50
2022-09-01T01:49:20.202Z,1.50
2022-09-01T01:51:49.102Z,1.40
2022-09-01T01:54:17.354Z,1.47
2022-09-01T01:56:44.180Z,1.63
2022-09-01T01:59:15.406Z,1.53
2022-09-01T02:01:44.178Z,1.40
2022-09-01T02:04:11.576Z,1.30
2022-09-01T02:06:45.866Z,1.30
2022-09-01T02:09:17.920Z,1.50
2022-09-01T02:11:45.681Z,1.60
2022-09-01T02:14:13.690Z,1.50
2022-09-01T02:16:41.503Z,1.77
2022-09-01T02:19:10.550Z,1.60
2022-09-01T02:21:37.257Z,1.43
2022-09-01T02:24:08.422Z,1.63
2022-09-01T02:26:39.552Z,1.40
2022-09-01T02:29:19.070Z,1.80
2022-09-01T02:31:48.443Z,1.53
2022-09-01T02:34:16.020Z,1.80
2022-09-01T02:36:49.079Z,1.70
2022-09-01T02:39:26.470Z,1.70
2022-09-01T02:41:53.977Z,1.63
2022-09-01T02:44:22.276Z,1.57
2022-09-01T02:46:50.449Z,1.83
2022-09-01T02:49:26.449Z,1.80
2022-09-01T02:52:01.287Z,1.70
2022-09-01T02:54:31.449Z,1.80
2022-09-01T02:56:58.743Z,1.37
2022-09-01T02:59:28.835Z,1.63
2022-09-01T03:01:57.288Z,1.50
2022-09-01T03:04:24.886Z,2.03
2022-09-01T03:06:54.906Z,1.80
2022-09-01T03:09:22.739Z,1.40
2022-09-01T03:11:51.375Z,1.73
2022-09-01T03:14:19.715Z,1.77
2022-09-01T03:16:46.834Z,1.80
2022-09-01T03:19:15.122Z,2.10
2022-09-01T03:21:46.064Z,1.70
2022-09-01T03:24:17.906Z,1.87
2022-09-01T03:26:50.094Z,1.57
2022-09-01T03:29:18.189Z,1.40
2022-09-01T03:31:45.156Z,1.73
2022-09-01T03:34:12.577Z,2.00
2022-09-01T03:36:40.020Z,1.90
2022-09-01T03:39:14.590Z,1.40
2022-09-01T03:41:43.597Z,1.80
2022-09-01T03:44:12.079Z,1.90
2022-09-01T03:46:40.484Z,2.03
2022-09-01T03:49:08.046Z,1.57
2022-09-01T03:51:35.267Z,1.70
2022-09-01T03:54:02.050Z,1.90
2022-09-01T03:56:29.767Z,1.93
2022-09-01T03:58:59.353Z,1.80
2022-09-01T04:01:32.806Z,2.07
2022-09-01T04:04:01.398Z,1.80
2022-09-01T04:06:30.446Z,1.83
2022-09-01T04:09:02.762Z,2.00
2022-09-01T04:11:30.821Z,2.03
2022-09-01T04:13:58.074Z,2.10
2022-09-01T04:16:47.525Z,1.73
2022-09-01T04:19:20.287Z,1.73
2022-09-01T04:21:54.270Z,1.97
2022-09-01T04:24:24.468Z,1.70
2022-09-01T04:26:52.779Z,1.40
2022-09-01T04:29:27.691Z,2.30
2022-09-01T04:31:59.206Z,2.00
2022-09-01T04:34:27.070Z,1.67
2022-09-01T04:36:55.507Z,2.07
2022-09-01T04:39:23.078Z,1.87
2022-09-01T04:41:50.599Z,1.60
2022-09-01T04:44:19.098Z,1.70
2022-09-01T04:46:47.942Z,1.60
2022-09-01T04:49:20.058Z,1.83
2022-09-01T04:51:53.347Z,1.70
2022-09-01T04:54:22.702Z,2.40
2022-09-01T04:56:51.140Z,2.00
2022-09-01T04:59:21.667Z,1.87
2022-09-01T05:01:50.731Z,1.77
2022-09-01T05:04:21.362Z,2.20
2022-09-01T05:06:51.094Z,2.50
2022-09-01T05:09:20.284Z,2.30
2022-09-01T05:11:48.575Z,2.30
2022-09-01T05:14:19.008Z,1.93
2022-09-01T05:16:46.464Z,2.03
2022-09-01T05:19:17.596Z,2.53
2022-09-01T05:21:46.819Z,1.90
2022-09-01T05:24:16.612Z,1.90
2022-09-01T05:26:44.277Z,2.30
2022-09-01T05:29:14.011Z,2.40
2022-09-01T05:31:42.018Z,2.50
2022-09-01T05:34:09.781Z,2.30
2022-09-01T05:36:41.868Z,2.17
2022-09-01T05:39:12.137Z,2.17
2022-09-01T05:41:41.109Z,2.00
2022-09-01T05:44:09.543Z,2.20
2022-09-01T05:46:39.722Z,2.33
2022-09-01T05:49:09.293Z,2.33
2022-09-01T05:51:46.358Z,2.30
2022-09-01T05:54:23.319Z,2.30
2022-09-01T05:56:50.358Z,2.17
2022-09-01T05:59:26.266Z,2.30
2022-09-01T06:01:54.872Z,2.77
2022-09-01T06:04:23.095Z,1.70
2022-09-01T06:07:07.755Z,2.63
2022-09-01T06:09:40.596Z,2.67
2022-09-01T06:12:18.470Z,2.03
2022-09-01T06:14:47.514Z,2.23
2022-09-01T06:17:16.702Z,2.47
2022-09-01T06:19:43.951Z,2.27
2022-09-01T06:22:11.576Z,2.87
2022-09-01T06:24:43.621Z,2.73
2022-09-01T06:27:12.591Z,3.07
2022-09-01T06:29:40.037Z,2.47
2022-09-01T06:32:12.555Z,2.73
2022-09-01T06:34:42.733Z,2.60
2022-09-01T06:37:11.075Z,2.70
2022-09-01T06:39:38.217Z,2.60
2022-09-01T06:42:06.371Z,2.83
2022-09-01T06:44:34.114Z,2.27
2022-09-01T06:47:09.388Z,3.00
2022-09-01T06:49:36.637Z,2.87
2022-09-01T06:52:05.018Z,2.53
2022-09-01T06:54:34.270Z,2.40
2022-09-01T06:59:54.675Z,2.50
2022-09-01T07:05:58.870Z,2.60
2022-09-01T07:08:12.374Z,2.20
2022-09-01T07:13:34.857Z,1.90
2022-09-01T07:18:59.815Z,1.60
2022-09-01T07:22:06.806Z,1.70
2022-09-01T07:24:18.149Z,1.60
2022-09-01T07:26:49.524Z,1.70
2022-09-01T07:29:19.886Z,1.60
2022-09-01T07:31:50.179Z,1.90
2022-09-01T07:39:51.699Z,1.60
2022-09-01T07:42:55.814Z,2.90
2022-09-01T07:47:56.744Z,1.27
2022-09-01T07:50:38.718Z,1.43
2022-09-01T07:53:09.338Z,1.83
2022-09-01T07:55:41.362Z,1.13
2022-09-01T07:58:10.663Z,2.07
2022-09-01T08:00:39.757Z,1.60
2022-09-01T08:03:06.718Z,1.67
2022-09-01T08:05:34.070Z,2.90
2022-09-01T08:08:01.521Z,3.37
2022-09-01T08:10:29.685Z,1.83
2022-09-01T08:12:57.342Z,2.47
2022-09-01T08:16:06.412Z,2.05
2022-09-01T08:18:14.559Z,2.00
2022-09-01T08:20:47.494Z,3.83
2022-09-01T08:23:18.611Z,1.42
2022-09-01T08:25:47.137Z,1.15
2022-09-01T08:28:15.777Z,2.13
2022-09-01T08:30:52.199Z,1.55
2022-09-01T08:33:19.918Z,1.60
2022-09-01T08:35:49.414Z,1.70
2022-09-01T08:38:16.262Z,1.80
2022-09-01T08:40:51.554Z,1.80
2022-09-01T08:43:32.755Z,1.70
2022-09-01T08:46:09.601Z,2.25
2022-09-01T08:51:59.050Z,2.58
2022-09-01T08:54:46.867Z,2.42
2022-09-01T08:57:23.470Z,1.63
2022-09-01T08:59:51.808Z,1.00
2022-09-01T09:02:41.420Z,1.27
2022-09-01T09:05:32.138Z,2.28
2022-09-01T09:08:54.173Z,1.23
2022-09-01T09:11:53.863Z,0.95
2022-09-01T09:14:36.637Z,0.85
2022-09-01T09:17:04.384Z,1.20
2022-09-01T09:19:37.637Z,1.00
2022-09-01T09:22:11.385Z,0.82
2022-09-01T09:24:52.863Z,0.77
2022-09-01T09:27:30.022Z,0.90
2022-09-01T09:30:23.978Z,1.00
2022-09-01T09:35:51.137Z,0.90
2022-09-01T09:38:28.454Z,0.93
2022-09-01T09:41:26.137Z,0.90
2022-09-01T09:44:05.839Z,1.20
2022-09-01T09:46:32.637Z,0.95
2022-09-01T09:49:34.804Z,1.00
2022-09-01T09:52:08.719Z,0.80
2022-09-01T09:54:37.341Z,1.02
2022-09-01T09:57:11.700Z,1.23
2022-09-01T09:59:57.833Z,1.50
2022-09-01T10:02:29.028Z,1.00
2022-09-01T10:04:57.219Z,0.77
2022-09-01T10:07:37.030Z,1.10
2022-09-01T10:10:25.896Z,1.13
2022-09-01T10:12:54.128Z,0.90
2022-09-01T10:15:24.883Z,0.75
2022-09-01T10:18:19.574Z,0.70
2022-09-01T10:20:48.627Z,1.10
2022-09-01T10:23:16.715Z,0.90
2022-09-01T10:25:44.516Z,0.90
2022-09-01T10:28:22.255Z,0.70
2022-09-01T10:30:50.835Z,0.65
2022-09-01T10:33:21.783Z,0.45
2022-09-01T10:35:53.312Z,1.08
2022-09-01T10:38:28.822Z,0.82
2022-09-01T10:41:07.944Z,1.10
2022-09-01T10:43:49.020Z,0.90
2022-09-01T10:46:24.424Z,0.65
2022-09-01T10:48:55.748Z,0.90
2022-09-01T10:51:29.064Z,0.93
2022-09-01T10:54:04.010Z,0.90
2022-09-01T10:56:51.521Z,0.73
2022-09-01T10:59:45.021Z,0.80
2022-09-01T11:02:25.804Z,0.70
2022-09-01T11:04:59.675Z,0.85
2022-09-01T11:08:00.324Z,0.82
2022-09-01T11:10:37.138Z,0.85
2022-09-01T11:13:35.304Z,0.80
2022-09-01T11:16:49.635Z,1.27
2022-09-01T11:19:38.024Z,0.70
2022-09-01T11:22:13.667Z,0.75
2022-09-01T11:24:41.310Z,0.55
2022-09-01T11:27:12.259Z,0.90
2022-09-01T11:30:08.605Z,0.80
2022-09-01T11:32:41.649Z,0.60
2022-09-01T11:35:21.433Z,0.60
2022-09-01T11:38:05.807Z,0.80
2022-09-01T11:40:35.754Z,0.70
2022-09-01T11:43:12.636Z,0.57
2022-09-01T11:46:09.908Z,0.73
2022-09-01T11:48:39.506Z,1.08
2022-09-01T11:51:06.385Z,0.75
2022-09-01T11:53:33.229Z,0.80
2022-09-01T11:56:17.397Z,0.50
2022-09-01T11:58:44.633Z,0.60
2022-09-01T12:01:36.466Z,0.50
2022-09-01T12:04:23.135Z,0.60
2022-09-01T12:07:01.882Z,0.82
2022-09-01T12:09:35.892Z,0.70
2022-09-01T12:12:03.572Z,0.68
2022-09-01T12:14:48.888Z,0.60
2022-09-01T12:17:20.582Z,0.70
2022-09-01T12:19:47.661Z,0.73
2022-09-01T12:22:21.655Z,1.05
2022-09-01T12:24:54.045Z,0.70
2022-09-01T12:27:25.391Z,0.70
2022-09-01T12:29:52.543Z,0.60
2022-09-01T12:32:20.335Z,0.50
2022-09-01T12:35:00.132Z,0.63
2022-09-01T12:37:28.099Z,0.60
2022-09-01T12:40:00.224Z,0.70
2022-09-01T12:42:40.888Z,0.70
2022-09-01T12:45:10.730Z,0.50
2022-09-01T12:47:37.696Z,0.50
2022-09-01T12:50:08.887Z,0.50
2022-09-01T12:52:44.795Z,0.60
2022-09-01T12:58:10.149Z,0.52
2022-09-01T13:00:58.656Z,0.43
2022-09-01T13:03:27.701Z,0.82
2022-09-01T13:06:00.127Z,0.65
2022-09-01T13:08:30.447Z,0.50
2022-09-01T13:11:14.311Z,1.00
2022-09-01T13:13:42.892Z,0.70
2022-09-01T13:16:13.956Z,0.50
2022-09-01T13:21:30.395Z,0.73
2022-09-01T13:23:58.086Z,0.60
2022-09-01T13:26:26.386Z,0.70
2022-09-01T13:28:54.070Z,0.70
2022-09-01T13:31:29.195Z,0.50
2022-09-01T13:34:23.131Z,0.70
2022-09-01T13:36:47.107Z,0.70
2022-09-01T13:39:15.813Z,0.75
2022-09-01T13:41:43.146Z,0.50
2022-09-01T13:44:10.529Z,0.68
2022-09-01T13:46:58.998Z,0.50
2022-09-01T13:52:13.143Z,0.77
2022-09-01T13:54:40.148Z,0.60
2022-09-01T13:57:06.919Z,0.60
2022-09-01T13:59:33.706Z,0.60
2022-09-01T14:02:01.742Z,0.70
2022-09-01T14:04:28.962Z,1.10
2022-09-01T14:06:56.135Z,0.60
2022-09-01T14:09:23.162Z,0.55
2022-09-01T14:11:53.915Z,0.68
2022-09-01T14:14:21.104Z,0.50
2022-09-01T14:16:48.798Z,0.60
2022-09-01T14:19:15.893Z,0.70
2022-09-01T14:21:43.149Z,0.50
2022-09-01T14:24:11.370Z,0.63
2022-09-01T14:26:38.226Z,0.60
2022-09-01T14:29:05.042Z,0.55
2022-09-01T14:31:32.091Z,0.70
2022-09-01T14:33:58.867Z,0.60
2022-09-01T14:36:26.928Z,0.55
2022-09-01T14:38:54.694Z,0.50
2022-09-01T14:41:23.959Z,0.50
2022-09-01T14:43:56.754Z,0.98
2022-09-01T14:46:25.549Z,0.60
2022-09-01T14:48:52.534Z,0.60
2022-09-01T14:52:10.157Z,0.38
2022-09-01T14:54:13.882Z,0.73
2022-09-01T14:56:41.892Z,0.63
2022-09-01T14:59:11.630Z,0.88
2022-09-01T15:01:39.734Z,0.60
2022-09-01T15:04:06.559Z,0.85
2022-09-01T15:06:34.103Z,0.75
2022-09-01T15:09:02.291Z,0.50
2022-09-01T15:11:29.277Z,0.70
2022-09-01T15:13:56.318Z,0.70
2022-09-01T15:16:25.752Z,0.60
2022-09-01T15:18:53.900Z,0.60
2022-09-01T15:21:34.082Z,0.70
2022-09-01T15:24:02.122Z,0.50
2022-09-01T15:26:29.344Z,0.73
2022-09-01T15:28:57.280Z,0.70
2022-09-01T15:31:32.960Z,0.60
2022-09-01T15:34:02.927Z,0.80
2022-09-01T15:36:31.814Z,0.80
2022-09-01T15:39:00.509Z,0.68
2022-09-01T15:41:32.743Z,0.60
2022-09-01T15:44:00.075Z,0.90
2022-09-01T15:46:32.927Z,0.80
2022-09-01T15:49:06.457Z,0.63
2022-09-01T15:51:41.249Z,0.80
2022-09-01T15:54:12.151Z,0.73
2022-09-01T15:56:42.471Z,0.77
2022-09-01T15:59:10.041Z,1.23
2022-09-01T16:01:41.932Z,0.70
2022-09-01T16:04:14.680Z,0.80
2022-09-01T16:06:45.533Z,1.05
2022-09-01T16:09:13.112Z,0.60
2022-09-01T16:11:41.402Z,0.88
2022-09-01T16:14:08.320Z,0.70
2022-09-01T16:17:03.357Z,0.93
2022-09-01T16:19:46.216Z,0.63
2022-09-01T16:22:35.952Z,0.85
2022-09-01T16:25:15.458Z,0.80
2022-09-01T16:27:45.923Z,0.47
2022-09-01T16:30:17.084Z,0.60
2022-09-01T16:32:48.300Z,0.68
2022-09-01T16:35:21.991Z,0.95
2022-09-01T16:38:08.603Z,1.23
2022-09-01T16:40:54.698Z,1.40
2022-09-01T16:43:38.118Z,1.30
2022-09-01T16:46:26.216Z,0.80
2022-09-01T16:49:31.290Z,1.05
2022-09-01T16:52:29.050Z,1.02
2022-09-01T16:55:05.828Z,1.05
2022-09-01T16:57:59.322Z,0.85
2022-09-01T17:00:44.340Z,0.82
2022-09-01T17:03:19.271Z,0.85
2022-09-01T17:05:47.069Z,1.05
2022-09-01T17:08:24.030Z,0.98
2022-09-01T17:10:57.454Z,1.25
2022-09-01T17:13:42.318Z,1.00
2022-09-01T17:16:21.775Z,0.95
2022-09-01T17:19:14.806Z,1.20
2022-09-01T17:22:03.031Z,1.40
2022-09-01T17:24:53.324Z,0.90
2022-09-01T17:27:48.187Z,1.00
2022-09-01T17:30:15.213Z,1.05
2022-09-01T17:33:13.066Z,1.10
2022-09-01T17:36:10.430Z,1.08
2022-09-01T17:38:48.181Z,1.30
2022-09-01T17:41:16.092Z,0.90
2022-09-01T17:44:13.881Z,0.80
2022-09-01T17:47:08.325Z,1.40
2022-09-01T17:49:50.794Z,1.20
2022-09-01T17:52:31.256Z,2.03
2022-09-01T17:55:01.116Z,1.35
2022-09-01T17:57:53.225Z,1.05
2022-09-01T18:00:27.497Z,1.53
2022-09-01T18:03:14.975Z,1.40
2022-09-01T18:05:59.292Z,1.50
2022-09-01T18:08:30.670Z,1.20
2022-09-01T18:11:08.370Z,1.10
2022-09-01T18:13:54.072Z,1.27
2022-09-01T18:16:30.789Z,1.30
2022-09-01T18:19:21.650Z,1.20
2022-09-01T18:21:56.511Z,1.10
2022-09-01T18:24:33.730Z,1.00
2022-09-01T18:27:01.805Z,1.40
2022-09-01T18:29:31.673Z,1.50
2022-09-01T18:32:22.520Z,1.20
2022-09-01T18:34:55.426Z,1.20
2022-09-01T18:37:44.615Z,1.23
2022-09-01T18:40:33.872Z,1.30
2022-09-01T18:43:14.279Z,1.40
2022-09-01T18:45:48.245Z,1.50
2022-09-01T18:48:21.334Z,1.00
2022-09-01T18:51:07.102Z,1.13
2022-09-01T18:53:59.492Z,1.13
2022-09-01T18:56:52.409Z,1.57
2022-09-01T18:59:37.381Z,1.20
2022-09-01T19:02:32.587Z,1.10
2022-09-01T19:05:38.336Z,1.03
2022-09-01T19:08:33.250Z,0.87
2022-09-01T19:11:27.022Z,1.10
2022-09-01T19:14:15.005Z,1.10
2022-09-01T19:17:08.561Z,1.10
2022-09-01T19:19:53.193Z,1.03
2022-09-01T19:22:48.744Z,1.30
2022-09-01T19:25:34.096Z,0.80
2022-09-01T19:28:39.786Z,1.07
2022-09-01T19:31:10.229Z,1.10
2022-09-01T19:33:44.314Z,1.30
2022-09-01T19:36:23.052Z,1.13
2022-09-01T19:38:52.654Z,0.90
2022-09-01T19:41:23.514Z,1.17
2022-09-01T19:44:02.579Z,1.00
2022-09-01T19:46:42.968Z,1.00
2022-09-01T19:49:30.653Z,1.30
2022-09-01T19:52:24.215Z,1.37
2022-09-01T19:55:10.066Z,1.47
2022-09-01T19:57:56.330Z,1.30
2022-09-01T20:00:52.466Z,1.20
2022-09-01T20:03:36.573Z,1.10
2022-09-01T20:06:11.046Z,1.50
2022-09-01T20:08:44.070Z,1.23
2022-09-01T20:11:16.868Z,1.37
2022-09-01T20:13:49.499Z,1.50
2022-09-01T20:16:40.219Z,1.20
2022-09-01T20:19:22.288Z,0.97
2022-09-01T20:21:49.489Z,1.07
2022-09-01T20:24:34.823Z,1.03
2022-09-01T20:27:23.285Z,1.00
2022-09-01T20:29:59.230Z,1.13
2022-09-01T20:32:44.156Z,1.30
2022-09-01T20:35:39.068Z,1.07
2022-09-01T20:38:30.744Z,1.30
2022-09-01T20:41:04.744Z,1.23
2022-09-01T20:43:39.776Z,1.10
2022-09-01T20:46:06.788Z,1.20
2022-09-01T20:48:38.978Z,0.90
2022-09-01T20:51:27.661Z,1.10
2022-09-01T20:54:14.475Z,1.00
2022-09-01T20:56:53.088Z,1.40
2022-09-01T20:59:53.808Z,1.00
2022-09-01T21:02:43.846Z,0.83
2022-09-01T21:05:29.350Z,1.20
2022-09-01T21:08:42.523Z,1.07
2022-09-01T21:11:58.530Z,1.30
2022-09-01T21:14:41.280Z,0.97
2022-09-01T21:17:13.646Z,1.20
2022-09-01T21:20:08.548Z,1.23
2022-09-01T21:22:35.546Z,0.83
2022-09-01T21:25:02.881Z,1.20
2022-09-01T21:27:42.108Z,1.30
2022-09-01T21:30:14.202Z,1.23
2022-09-01T21:32:41.782Z,1.20
2022-09-01T21:35:14.848Z,0.83
2022-09-01T21:37:41.847Z,1.10
2022-09-01T21:40:11.157Z,0.90
2022-09-01T21:42:56.221Z,1.23
2022-09-01T21:45:24.014Z,1.10
2022-09-01T21:47:52.111Z,1.30
2022-09-01T21:50:21.324Z,1.10
2022-09-01T21:52:48.770Z,1.13
2022-09-01T21:55:20.674Z,1.17
2022-09-01T21:57:52.972Z,1.60
2022-09-01T22:00:25.936Z,1.40
2022-09-01T22:02:53.874Z,1.17
2022-09-01T22:05:21.186Z,1.00
2022-09-01T22:07:48.459Z,1.40
2022-09-01T22:10:18.098Z,1.23
2022-09-01T22:12:46.649Z,1.70
2022-09-01T22:15:16.295Z,1.33
2022-09-01T22:17:43.930Z,1.53
2022-09-01T22:20:13.093Z,1.40
2022-09-01T22:22:39.867Z,1.07
2022-09-01T22:25:13.843Z,1.00
2022-09-01T22:27:40.912Z,1.30
2022-09-01T22:30:09.493Z,1.13
2022-09-01T22:32:37.948Z,1.30
2022-09-01T22:35:10.325Z,1.30
2022-09-01T22:37:38.395Z,1.23
2022-09-01T22:40:06.509Z,1.10
2022-09-01T22:42:33.884Z,1.37
2022-09-01T22:45:01.255Z,1.27
2022-09-01T22:47:28.240Z,1.30
2022-09-01T22:49:55.367Z,1.10
2022-09-01T22:52:22.430Z,1.23
2022-09-01T22:54:50.391Z,1.03
2022-09-01T22:57:17.186Z,1.10
2022-09-01T22:59:44.077Z,1.30
2022-09-01T23:02:11.265Z,0.97
2022-09-01T23:04:40.309Z,1.40
2022-09-01T23:07:07.490Z,1.10
2022-09-01T23:09:35.131Z,1.20
2022-09-01T23:12:02.030Z,1.20
2022-09-01T23:14:29.015Z,1.30
2022-09-01T23:16:56.435Z,1.30
2022-09-01T23:19:24.209Z,1.03
2022-09-01T23:21:52.566Z,1.30
2022-09-01T23:24:19.892Z,1.00
2022-09-01T23:26:47.644Z,1.30
2022-09-01T23:29:14.834Z,1.37
2022-09-01T23:31:43.664Z,1.20
2022-09-01T23:34:10.548Z,0.90
2022-09-01T23:36:37.423Z,1.30
2022-09-01T23:39:06.073Z,1.17
2022-09-01T23:41:35.825Z,1.30
2022-09-01T23:44:04.637Z,1.20
2022-09-01T23:46:35.099Z,1.30
2022-09-01T23:49:03.524Z,1.20
2022-09-01T23:51:30.634Z,1.13
2022-09-01T23:53:57.477Z,1.30
2022-09-01T23:56:26.296Z,1.40
2022-09-01T23:58:56.379Z,1.30
